sensor_id;sensor_type;location;lat;lon;timestamp;temperature;humidity
15930;DHT22;8064;51.142;4.780;2022-11-15T00:00:43;10.50;99.90
15930;DHT22;8064;51.142;4.780;2022-11-15T00:03:09;10.50;99.90
15930;DHT22;8064;51.142;4.780;2022-11-15T00:05:35;10.60;99.90
15930;DHT22;8064;51.142;4.780;2022-11-15T00:08:01;10.60;99.90
15930;DHT22;8064;51.142;4.780;2022-11-15T00:10:27;10.60;99.90
15930;DHT22;8064;51.142;4.780;2022-11-15T00:12:53;10.70;99.90
15930;DHT22;8064;51.142;4.780;2022-11-15T00:15:18;10.70;99.90
15930;DHT22;8064;51.142;4.780;2022-11-15T00:17:44;10.70;99.90
15930;DHT22;8064;51.142;4.780;2022-11-15T00:20:13;10.70;99.90
15930;DHT22;8064;51.142;4.780;2022-11-15T00:22:39;10.70;99.90
15930;DHT22;8064;51.142;4.780;2022-11-15T00:25:05;10.80;99.90
15930;DHT22;8064;51.142;4.780;2022-11-15T00:27:31;10.80;99.90
15930;DHT22;8064;51.142;4.780;2022-11-15T00:29:56;10.90;99.90
15930;DHT22;8064;51.142;4.780;2022-11-15T00:32:22;10.90;99.90
15930;DHT22;8064;51.142;4.780;2022-11-15T00:34:48;10.90;99.90
15930;DHT22;8064;51.142;4.780;2022-11-15T00:37:13;11.00;99.90
15930;DHT22;8064;51.142;4.780;2022-11-15T00:39:39;11.00;99.90
15930;DHT22;8064;51.142;4.780;2022-11-15T00:42:05;11.00;99.90
15930;DHT22;8064;51.142;4.780;2022-11-15T00:44:30;11.00;99.90
15930;DHT22;8064;51.142;4.780;2022-11-15T00:46:56;11.00;99.90
15930;DHT22;8064;51.142;4.780;2022-11-15T00:49:22;11.10;99.90
15930;DHT22;8064;51.142;4.780;2022-11-15T00:51:48;11.10;99.90
15930;DHT22;8064;51.142;4.780;2022-11-15T00:54:13;11.10;99.90
15930;DHT22;8064;51.142;4.780;2022-11-15T00:56:39;11.10;99.90
15930;DHT22;8064;51.142;4.780;2022-11-15T00:59:05;11.10;99.90
15930;DHT22;8064;51.142;4.780;2022-11-15T01:01:30;11.10;99.90
15930;DHT22;8064;51.142;4.780;2022-11-15T01:03:56;11.20;99.90
15930;DHT22;8064;51.142;4.780;2022-11-15T01:06:22;11.20;99.90
15930;DHT22;8064;51.142;4.780;2022-11-15T01:08:48;11.20;99.90
15930;DHT22;8064;51.142;4.780;2022-11-15T01:11:14;11.30;99.90
15930;DHT22;8064;51.142;4.780;2022-11-15T01:13:40;11.30;99.90
15930;DHT22;8064;51.142;4.780;2022-11-15T01:16:14;11.30;99.90
15930;DHT22;8064;51.142;4.780;2022-11-15T01:18:42;11.30;99.90
15930;DHT22;8064;51.142;4.780;2022-11-15T01:21:09;11.40;99.90
15930;DHT22;8064;51.142;4.780;2022-11-15T01:23:35;11.40;99.90
15930;DHT22;8064;51.142;4.780;2022-11-15T01:26:03;11.40;99.90
15930;DHT22;8064;51.142;4.780;2022-11-15T01:28:34;11.50;99.90
15930;DHT22;8064;51.142;4.780;2022-11-15T01:31:05;11.50;99.90
15930;DHT22;8064;51.142;4.780;2022-11-15T01:33:34;11.50;99.90
15930;DHT22;8064;51.142;4.780;2022-11-15T01:36:06;11.60;99.90
15930;DHT22;8064;51.142;4.780;2022-11-15T01:38:32;11.60;99.90
15930;DHT22;8064;51.142;4.780;2022-11-15T01:40:57;11.60;99.90
15930;DHT22;8064;51.142;4.780;2022-11-15T01:43:33;11.60;99.90
15930;DHT22;8064;51.142;4.780;2022-11-15T01:48:36;11.70;99.90
15930;DHT22;8064;51.142;4.780;2022-11-15T01:51:06;11.70;99.90
15930;DHT22;8064;51.142;4.780;2022-11-15T01:53:33;11.80;99.90
15930;DHT22;8064;51.142;4.780;2022-11-15T01:56:02;11.80;99.90
15930;DHT22;8064;51.142;4.780;2022-11-15T01:58:29;11.80;99.90
15930;DHT22;8064;51.142;4.780;2022-11-15T02:00:55;11.80;99.90
15930;DHT22;8064;51.142;4.780;2022-11-15T02:03:22;11.90;99.90
15930;DHT22;8064;51.142;4.780;2022-11-15T02:05:52;11.90;99.90
15930;DHT22;8064;51.142;4.780;2022-11-15T02:08:18;11.90;99.90
15930;DHT22;8064;51.142;4.780;2022-11-15T02:10:47;11.90;99.90
15930;DHT22;8064;51.142;4.780;2022-11-15T02:13:14;11.90;99.90
15930;DHT22;8064;51.142;4.780;2022-11-15T02:15:58;12.00;99.90
15930;DHT22;8064;51.142;4.780;2022-11-15T02:18:37;12.00;99.90
15930;DHT22;8064;51.142;4.780;2022-11-15T02:27:35;12.10;99.90
15930;DHT22;8064;51.142;4.780;2022-11-15T02:32:48;12.10;99.90
15930;DHT22;8064;51.142;4.780;2022-11-15T02:35:37;12.10;99.90
15930;DHT22;8064;51.142;4.780;2022-11-15T02:38:10;12.10;99.90
15930;DHT22;8064;51.142;4.780;2022-11-15T02:41:01;12.10;99.90
15930;DHT22;8064;51.142;4.780;2022-11-15T02:43:35;12.10;99.90
15930;DHT22;8064;51.142;4.780;2022-11-15T02:49:18;12.20;99.90
15930;DHT22;8064;51.142;4.780;2022-11-15T02:51:46;12.20;99.90
15930;DHT22;8064;51.142;4.780;2022-11-15T02:54:25;12.20;99.90
15930;DHT22;8064;51.142;4.780;2022-11-15T02:56:54;12.20;99.90
15930;DHT22;8064;51.142;4.780;2022-11-15T03:07:51;12.30;99.90
15930;DHT22;8064;51.142;4.780;2022-11-15T03:10:45;12.30;99.90
15930;DHT22;8064;51.142;4.780;2022-11-15T03:15:40;12.30;99.90
15930;DHT22;8064;51.142;4.780;2022-11-15T03:18:19;12.20;99.90
15930;DHT22;8064;51.142;4.780;2022-11-15T03:20:48;12.30;99.90
15930;DHT22;8064;51.142;4.780;2022-11-15T03:23:14;12.20;99.90
15930;DHT22;8064;51.142;4.780;2022-11-15T03:25:46;12.20;99.90
15930;DHT22;8064;51.142;4.780;2022-11-15T03:28:23;12.20;99.90
15930;DHT22;8064;51.142;4.780;2022-11-15T03:30:50;12.20;99.90
15930;DHT22;8064;51.142;4.780;2022-11-15T03:33:19;12.20;99.90
15930;DHT22;8064;51.142;4.780;2022-11-15T03:35:47;12.20;99.90
15930;DHT22;8064;51.142;4.780;2022-11-15T03:38:24;12.20;99.90
15930;DHT22;8064;51.142;4.780;2022-11-15T03:41:00;12.30;99.90
15930;DHT22;8064;51.142;4.780;2022-11-15T03:46:11;12.30;99.90
15930;DHT22;8064;51.142;4.780;2022-11-15T03:48:46;12.30;99.90
15930;DHT22;8064;51.142;4.780;2022-11-15T03:51:14;12.30;99.90
15930;DHT22;8064;51.142;4.780;2022-11-15T03:53:41;12.30;99.90
15930;DHT22;8064;51.142;4.780;2022-11-15T03:56:07;12.30;99.90
15930;DHT22;8064;51.142;4.780;2022-11-15T03:58:32;12.30;99.90
15930;DHT22;8064;51.142;4.780;2022-11-15T04:00:58;12.30;99.90
15930;DHT22;8064;51.142;4.780;2022-11-15T04:03:25;12.30;99.90
15930;DHT22;8064;51.142;4.780;2022-11-15T04:05:51;12.30;99.90
15930;DHT22;8064;51.142;4.780;2022-11-15T04:08:17;12.30;99.90
15930;DHT22;8064;51.142;4.780;2022-11-15T04:10:42;12.30;99.90
15930;DHT22;8064;51.142;4.780;2022-11-15T04:13:08;12.30;99.90
15930;DHT22;8064;51.142;4.780;2022-11-15T04:15:34;12.30;99.90
15930;DHT22;8064;51.142;4.780;2022-11-15T04:18:00;12.30;99.90
15930;DHT22;8064;51.142;4.780;2022-11-15T04:20:28;12.30;99.90
15930;DHT22;8064;51.142;4.780;2022-11-15T04:23:15;12.30;99.90
15930;DHT22;8064;51.142;4.780;2022-11-15T04:26:02;12.30;99.90
15930;DHT22;8064;51.142;4.780;2022-11-15T04:28:28;12.30;99.90
15930;DHT22;8064;51.142;4.780;2022-11-15T04:30:54;12.30;99.90
15930;DHT22;8064;51.142;4.780;2022-11-15T04:33:20;12.30;99.90
15930;DHT22;8064;51.142;4.780;2022-11-15T04:35:46;12.30;99.90
15930;DHT22;8064;51.142;4.780;2022-11-15T04:38:32;12.30;99.90
15930;DHT22;8064;51.142;4.780;2022-11-15T04:40:57;12.30;99.90
15930;DHT22;8064;51.142;4.780;2022-11-15T04:43:23;12.30;99.90
15930;DHT22;8064;51.142;4.780;2022-11-15T04:45:49;12.30;99.90
15930;DHT22;8064;51.142;4.780;2022-11-15T04:48:15;12.40;99.90
15930;DHT22;8064;51.142;4.780;2022-11-15T04:50:40;12.30;99.90
15930;DHT22;8064;51.142;4.780;2022-11-15T04:53:06;12.30;99.90
15930;DHT22;8064;51.142;4.780;2022-11-15T04:55:32;12.30;99.90
15930;DHT22;8064;51.142;4.780;2022-11-15T04:57:59;12.30;99.90
15930;DHT22;8064;51.142;4.780;2022-11-15T05:00:26;12.30;99.90
15930;DHT22;8064;51.142;4.780;2022-11-15T05:02:52;12.30;99.90
15930;DHT22;8064;51.142;4.780;2022-11-15T05:05:36;12.30;99.90
15930;DHT22;8064;51.142;4.780;2022-11-15T05:08:02;12.30;99.90
15930;DHT22;8064;51.142;4.780;2022-11-15T05:10:28;12.40;99.90
15930;DHT22;8064;51.142;4.780;2022-11-15T05:12:54;12.30;99.90
15930;DHT22;8064;51.142;4.780;2022-11-15T05:15:20;12.30;99.90
15930;DHT22;8064;51.142;4.780;2022-11-15T05:17:45;12.30;99.90
15930;DHT22;8064;51.142;4.780;2022-11-15T05:20:11;12.30;99.90
15930;DHT22;8064;51.142;4.780;2022-11-15T05:22:38;12.30;99.90
15930;DHT22;8064;51.142;4.780;2022-11-15T05:25:04;12.30;99.90
15930;DHT22;8064;51.142;4.780;2022-11-15T05:27:30;12.30;99.90
15930;DHT22;8064;51.142;4.780;2022-11-15T05:29:55;12.30;99.90
15930;DHT22;8064;51.142;4.780;2022-11-15T05:32:21;12.30;99.90
15930;DHT22;8064;51.142;4.780;2022-11-15T05:34:47;12.30;99.90
15930;DHT22;8064;51.142;4.780;2022-11-15T05:37:13;12.30;99.90
15930;DHT22;8064;51.142;4.780;2022-11-15T05:39:39;12.30;99.90
15930;DHT22;8064;51.142;4.780;2022-11-15T05:42:09;12.30;99.90
15930;DHT22;8064;51.142;4.780;2022-11-15T05:44:36;12.30;99.90
15930;DHT22;8064;51.142;4.780;2022-11-15T05:47:05;12.30;99.90
15930;DHT22;8064;51.142;4.780;2022-11-15T05:49:34;12.30;99.90
15930;DHT22;8064;51.142;4.780;2022-11-15T05:52:04;12.30;99.90
15930;DHT22;8064;51.142;4.780;2022-11-15T05:54:31;12.30;99.90
15930;DHT22;8064;51.142;4.780;2022-11-15T05:56:57;12.30;99.90
15930;DHT22;8064;51.142;4.780;2022-11-15T05:59:23;12.30;99.90
15930;DHT22;8064;51.142;4.780;2022-11-15T06:01:49;12.30;99.90
15930;DHT22;8064;51.142;4.780;2022-11-15T06:04:15;12.30;99.90
15930;DHT22;8064;51.142;4.780;2022-11-15T06:06:41;12.20;99.90
15930;DHT22;8064;51.142;4.780;2022-11-15T06:09:06;12.20;99.90
15930;DHT22;8064;51.142;4.780;2022-11-15T06:11:32;12.20;99.90
15930;DHT22;8064;51.142;4.780;2022-11-15T06:13:58;12.20;99.90
15930;DHT22;8064;51.142;4.780;2022-11-15T06:16:24;12.20;99.90
15930;DHT22;8064;51.142;4.780;2022-11-15T06:18:49;12.10;99.90
15930;DHT22;8064;51.142;4.780;2022-11-15T06:21:15;12.10;99.90
15930;DHT22;8064;51.142;4.780;2022-11-15T06:23:41;12.10;99.90
15930;DHT22;8064;51.142;4.780;2022-11-15T06:26:06;12.10;99.90
15930;DHT22;8064;51.142;4.780;2022-11-15T06:28:32;12.10;99.90
15930;DHT22;8064;51.142;4.780;2022-11-15T06:31:08;12.10;99.90
15930;DHT22;8064;51.142;4.780;2022-11-15T06:33:35;12.10;99.90
15930;DHT22;8064;51.142;4.780;2022-11-15T06:36:05;12.10;99.90
15930;DHT22;8064;51.142;4.780;2022-11-15T06:38:31;12.10;99.90
15930;DHT22;8064;51.142;4.780;2022-11-15T06:41:04;12.10;99.90
15930;DHT22;8064;51.142;4.780;2022-11-15T06:43:30;12.10;99.90
15930;DHT22;8064;51.142;4.780;2022-11-15T06:45:58;12.10;99.90
15930;DHT22;8064;51.142;4.780;2022-11-15T06:48:24;12.10;99.90
15930;DHT22;8064;51.142;4.780;2022-11-15T06:50:51;12.10;99.90
15930;DHT22;8064;51.142;4.780;2022-11-15T06:53:17;12.10;99.90
15930;DHT22;8064;51.142;4.780;2022-11-15T06:55:43;12.10;99.90
15930;DHT22;8064;51.142;4.780;2022-11-15T06:58:08;12.10;99.90
15930;DHT22;8064;51.142;4.780;2022-11-15T07:00:34;12.10;99.90
15930;DHT22;8064;51.142;4.780;2022-11-15T07:03:00;12.00;99.90
15930;DHT22;8064;51.142;4.780;2022-11-15T07:05:27;12.00;99.90
15930;DHT22;8064;51.142;4.780;2022-11-15T07:07:54;12.00;99.90
15930;DHT22;8064;51.142;4.780;2022-11-15T07:10:21;12.00;99.90
15930;DHT22;8064;51.142;4.780;2022-11-15T07:12:53;12.00;99.90
15930;DHT22;8064;51.142;4.780;2022-11-15T07:15:21;12.00;99.90
15930;DHT22;8064;51.142;4.780;2022-11-15T07:17:47;11.90;99.90
15930;DHT22;8064;51.142;4.780;2022-11-15T07:20:13;11.90;99.90
15930;DHT22;8064;51.142;4.780;2022-11-15T07:22:40;11.90;99.90
15930;DHT22;8064;51.142;4.780;2022-11-15T07:25:06;11.90;99.90
15930;DHT22;8064;51.142;4.780;2022-11-15T07:27:32;11.90;99.90
15930;DHT22;8064;51.142;4.780;2022-11-15T07:29:58;11.90;99.90
15930;DHT22;8064;51.142;4.780;2022-11-15T07:32:24;11.80;99.90
15930;DHT22;8064;51.142;4.780;2022-11-15T07:34:50;11.90;99.90
15930;DHT22;8064;51.142;4.780;2022-11-15T07:37:16;11.90;99.90
15930;DHT22;8064;51.142;4.780;2022-11-15T07:39:42;11.90;99.90
15930;DHT22;8064;51.142;4.780;2022-11-15T07:42:09;11.90;99.90
15930;DHT22;8064;51.142;4.780;2022-11-15T07:44:53;11.90;99.90
15930;DHT22;8064;51.142;4.780;2022-11-15T07:47:18;11.90;99.90
15930;DHT22;8064;51.142;4.780;2022-11-15T07:49:44;11.90;99.90
15930;DHT22;8064;51.142;4.780;2022-11-15T07:52:12;11.90;99.90
15930;DHT22;8064;51.142;4.780;2022-11-15T07:54:37;11.90;99.90
15930;DHT22;8064;51.142;4.780;2022-11-15T07:57:03;11.90;99.90
15930;DHT22;8064;51.142;4.780;2022-11-15T07:59:29;11.90;99.90
15930;DHT22;8064;51.142;4.780;2022-11-15T08:01:55;11.90;99.90
15930;DHT22;8064;51.142;4.780;2022-11-15T08:04:20;12.00;99.90
15930;DHT22;8064;51.142;4.780;2022-11-15T08:06:46;12.00;99.90
15930;DHT22;8064;51.142;4.780;2022-11-15T08:09:12;12.00;99.90
15930;DHT22;8064;51.142;4.780;2022-11-15T08:11:38;12.10;99.90
15930;DHT22;8064;51.142;4.780;2022-11-15T08:14:03;12.10;99.90
15930;DHT22;8064;51.142;4.780;2022-11-15T08:16:29;12.20;99.90
15930;DHT22;8064;51.142;4.780;2022-11-15T08:18:55;12.30;99.90
15930;DHT22;8064;51.142;4.780;2022-11-15T08:21:21;12.30;99.90
15930;DHT22;8064;51.142;4.780;2022-11-15T08:23:46;12.40;99.90
15930;DHT22;8064;51.142;4.780;2022-11-15T08:26:12;12.60;99.90
15930;DHT22;8064;51.142;4.780;2022-11-15T08:28:38;12.70;99.90
15930;DHT22;8064;51.142;4.780;2022-11-15T08:31:04;12.80;99.90
15930;DHT22;8064;51.142;4.780;2022-11-15T08:33:31;13.00;99.90
15930;DHT22;8064;51.142;4.780;2022-11-15T08:35:59;13.20;99.90
15930;DHT22;8064;51.142;4.780;2022-11-15T08:38:25;13.30;99.90
15930;DHT22;8064;51.142;4.780;2022-11-15T08:40:53;13.50;99.90
15930;DHT22;8064;51.142;4.780;2022-11-15T08:43:23;13.70;99.90
15930;DHT22;8064;51.142;4.780;2022-11-15T08:45:50;13.90;99.90
15930;DHT22;8064;51.142;4.780;2022-11-15T08:48:16;14.10;99.90
15930;DHT22;8064;51.142;4.780;2022-11-15T08:50:42;14.40;99.90
15930;DHT22;8064;51.142;4.780;2022-11-15T08:53:09;14.60;99.90
15930;DHT22;8064;51.142;4.780;2022-11-15T08:55:38;14.80;99.90
15930;DHT22;8064;51.142;4.780;2022-11-15T08:58:04;15.20;99.90
15930;DHT22;8064;51.142;4.780;2022-11-15T09:00:30;15.70;99.90
15930;DHT22;8064;51.142;4.780;2022-11-15T09:02:56;16.20;99.00
15930;DHT22;8064;51.142;4.780;2022-11-15T09:05:21;16.90;97.50
15930;DHT22;8064;51.142;4.780;2022-11-15T09:07:47;18.00;95.70
15930;DHT22;8064;51.142;4.780;2022-11-15T09:10:17;19.50;93.20
15930;DHT22;8064;51.142;4.780;2022-11-15T09:12:43;21.20;90.40
15930;DHT22;8064;51.142;4.780;2022-11-15T09:15:09;22.00;87.00
15930;DHT22;8064;51.142;4.780;2022-11-15T09:17:35;22.50;84.10
15930;DHT22;8064;51.142;4.780;2022-11-15T09:20:01;23.00;81.90
15930;DHT22;8064;51.142;4.780;2022-11-15T09:22:27;23.70;79.50
15930;DHT22;8064;51.142;4.780;2022-11-15T09:24:53;23.90;78.50
15930;DHT22;8064;51.142;4.780;2022-11-15T09:27:20;24.00;77.90
15930;DHT22;8064;51.142;4.780;2022-11-15T09:29:45;23.20;78.80
15930;DHT22;8064;51.142;4.780;2022-11-15T09:32:11;22.40;79.80
15930;DHT22;8064;51.142;4.780;2022-11-15T09:34:37;21.90;80.50
15930;DHT22;8064;51.142;4.780;2022-11-15T09:37:02;21.50;81.20
15930;DHT22;8064;51.142;4.780;2022-11-15T09:39:28;20.60;83.00
15930;DHT22;8064;51.142;4.780;2022-11-15T09:49:59;27.80;63.10
15930;DHT22;8064;51.142;4.780;2022-11-15T09:52:27;29.10;60.70
15930;DHT22;8064;51.142;4.780;2022-11-15T09:54:53;30.10;57.90
15930;DHT22;8064;51.142;4.780;2022-11-15T10:00:06;30.90;54.00
15930;DHT22;8064;51.142;4.780;2022-11-15T10:05:11;32.90;50.10
15930;DHT22;8064;51.142;4.780;2022-11-15T10:12:48;36.70;44.40
15930;DHT22;8064;51.142;4.780;2022-11-15T10:15:16;37.00;42.60
15930;DHT22;8064;51.142;4.780;2022-11-15T10:18:00;37.10;42.90
15930;DHT22;8064;51.142;4.780;2022-11-15T10:20:30;37.70;40.00
15930;DHT22;8064;51.142;4.780;2022-11-15T10:23:05;38.30;40.20
15930;DHT22;8064;51.142;4.780;2022-11-15T10:25:35;39.10;37.80
15930;DHT22;8064;51.142;4.780;2022-11-15T10:28:28;39.60;37.00
15930;DHT22;8064;51.142;4.780;2022-11-15T10:30:54;40.10;36.10
15930;DHT22;8064;51.142;4.780;2022-11-15T10:44:12;27.70;49.20
15930;DHT22;8064;51.142;4.780;2022-11-15T10:46:44;25.80;51.40
15930;DHT22;8064;51.142;4.780;2022-11-15T10:49:23;24.60;53.60
15930;DHT22;8064;51.142;4.780;2022-11-15T10:57:00;27.10;50.60
15930;DHT22;8064;51.142;4.780;2022-11-15T10:59:32;27.60;49.60
15930;DHT22;8064;51.142;4.780;2022-11-15T11:01:59;28.20;48.90
15930;DHT22;8064;51.142;4.780;2022-11-15T11:04:25;29.00;48.20
15930;DHT22;8064;51.142;4.780;2022-11-15T11:06:57;29.70;47.10
15930;DHT22;8064;51.142;4.780;2022-11-15T11:09:31;30.20;45.60
15930;DHT22;8064;51.142;4.780;2022-11-15T11:11:58;30.70;44.90
15930;DHT22;8064;51.142;4.780;2022-11-15T11:14:42;31.00;44.60
15930;DHT22;8064;51.142;4.780;2022-11-15T11:17:36;31.10;44.40
15930;DHT22;8064;51.142;4.780;2022-11-15T11:34:15;23.30;52.70
15930;DHT22;8064;51.142;4.780;2022-11-15T11:36:54;22.10;54.20
15930;DHT22;8064;51.142;4.780;2022-11-15T11:39:47;20.90;55.90
15930;DHT22;8064;51.142;4.780;2022-11-15T11:45:30;19.20;59.00
15930;DHT22;8064;51.142;4.780;2022-11-15T11:48:13;18.60;60.60
15930;DHT22;8064;51.142;4.780;2022-11-15T11:50:41;18.00;61.50
15930;DHT22;8064;51.142;4.780;2022-11-15T11:53:31;17.60;62.90
15930;DHT22;8064;51.142;4.780;2022-11-15T11:56:08;17.20;64.20
15930;DHT22;8064;51.142;4.780;2022-11-15T11:58:40;16.80;65.40
15930;DHT22;8064;51.142;4.780;2022-11-15T12:01:17;16.50;66.40
15930;DHT22;8064;51.142;4.780;2022-11-15T12:04:11;16.20;67.60
15930;DHT22;8064;51.142;4.780;2022-11-15T12:06:53;15.90;68.80
15930;DHT22;8064;51.142;4.780;2022-11-15T12:12:25;15.60;70.20
15930;DHT22;8064;51.142;4.780;2022-11-15T12:15:11;15.40;70.90
15930;DHT22;8064;51.142;4.780;2022-11-15T12:17:40;15.30;71.70
15930;DHT22;8064;51.142;4.780;2022-11-15T12:20:21;15.10;72.00
15930;DHT22;8064;51.142;4.780;2022-11-15T12:23:27;15.00;73.10
15930;DHT22;8064;51.142;4.780;2022-11-15T12:31:39;14.80;74.70
15930;DHT22;8064;51.142;4.780;2022-11-15T12:36:49;14.60;76.10
15930;DHT22;8064;51.142;4.780;2022-11-15T12:39:16;14.60;76.40
15930;DHT22;8064;51.142;4.780;2022-11-15T13:31:02;14.40;85.40
15930;DHT22;8064;51.142;4.780;2022-11-15T13:33:37;14.40;85.50
15930;DHT22;8064;51.142;4.780;2022-11-15T13:38:41;14.60;86.60
15930;DHT22;8064;51.142;4.780;2022-11-15T13:43:42;14.60;87.30
15930;DHT22;8064;51.142;4.780;2022-11-15T13:46:16;14.60;87.50
15930;DHT22;8064;51.142;4.780;2022-11-15T13:48:43;14.60;87.80
15930;DHT22;8064;51.142;4.780;2022-11-15T13:51:37;14.60;88.10
15930;DHT22;8064;51.142;4.780;2022-11-15T13:57:16;14.60;88.90
15930;DHT22;8064;51.142;4.780;2022-11-15T13:59:54;14.60;89.20
15930;DHT22;8064;51.142;4.780;2022-11-15T14:02:29;14.60;89.60
15930;DHT22;8064;51.142;4.780;2022-11-15T14:05:02;14.60;90.00
15930;DHT22;8064;51.142;4.780;2022-11-15T14:07:28;14.50;90.20
15930;DHT22;8064;51.142;4.780;2022-11-15T14:09:55;14.50;90.20
15930;DHT22;8064;51.142;4.780;2022-11-15T14:12:23;14.50;90.30
15930;DHT22;8064;51.142;4.780;2022-11-15T14:14:50;14.50;90.50
15930;DHT22;8064;51.142;4.780;2022-11-15T14:19:57;14.40;90.90
15930;DHT22;8064;51.142;4.780;2022-11-15T14:22:29;14.40;90.90
15930;DHT22;8064;51.142;4.780;2022-11-15T14:27:43;14.40;91.20
15930;DHT22;8064;51.142;4.780;2022-11-15T14:30:14;14.40;91.20
15930;DHT22;8064;51.142;4.780;2022-11-15T14:32:46;14.40;91.40
15930;DHT22;8064;51.142;4.780;2022-11-15T14:35:19;14.40;91.50
15930;DHT22;8064;51.142;4.780;2022-11-15T14:37:45;14.40;91.60
15930;DHT22;8064;51.142;4.780;2022-11-15T14:40:19;14.40;91.60
15930;DHT22;8064;51.142;4.780;2022-11-15T14:42:47;14.40;91.80
15930;DHT22;8064;51.142;4.780;2022-11-15T14:45:19;14.40;91.90
15930;DHT22;8064;51.142;4.780;2022-11-15T14:47:45;14.40;92.00
15930;DHT22;8064;51.142;4.780;2022-11-15T14:50:20;14.40;92.00
15930;DHT22;8064;51.142;4.780;2022-11-15T14:52:47;14.40;92.20
15930;DHT22;8064;51.142;4.780;2022-11-15T14:55:25;14.40;92.20
15930;DHT22;8064;51.142;4.780;2022-11-15T14:57:52;14.40;92.40
15930;DHT22;8064;51.142;4.780;2022-11-15T15:00:19;14.40;92.40
15930;DHT22;8064;51.142;4.780;2022-11-15T15:02:45;14.30;92.50
15930;DHT22;8064;51.142;4.780;2022-11-15T15:07:45;14.30;93.00
15930;DHT22;8064;51.142;4.780;2022-11-15T15:10:12;14.20;93.10
15930;DHT22;8064;51.142;4.780;2022-11-15T15:12:40;14.20;93.30
15930;DHT22;8064;51.142;4.780;2022-11-15T15:15:11;14.20;93.60
15930;DHT22;8064;51.142;4.780;2022-11-15T15:17:37;14.10;93.80
15930;DHT22;8064;51.142;4.780;2022-11-15T15:20:04;14.10;94.00
15930;DHT22;8064;51.142;4.780;2022-11-15T15:22:31;14.00;94.30
15930;DHT22;8064;51.142;4.780;2022-11-15T15:24:57;14.00;94.50
15930;DHT22;8064;51.142;4.780;2022-11-15T15:27:22;13.90;94.70
15930;DHT22;8064;51.142;4.780;2022-11-15T15:29:48;13.90;94.90
15930;DHT22;8064;51.142;4.780;2022-11-15T15:32:14;13.90;95.10
15930;DHT22;8064;51.142;4.780;2022-11-15T15:34:39;13.80;95.30
15930;DHT22;8064;51.142;4.780;2022-11-15T15:39:48;13.70;95.90
15930;DHT22;8064;51.142;4.780;2022-11-15T15:42:14;13.70;95.90
15930;DHT22;8064;51.142;4.780;2022-11-15T15:44:40;13.60;96.10
15930;DHT22;8064;51.142;4.780;2022-11-15T15:47:20;13.60;96.30
15930;DHT22;8064;51.142;4.780;2022-11-15T15:49:47;13.60;96.60
15930;DHT22;8064;51.142;4.780;2022-11-15T15:52:13;13.50;96.60
15930;DHT22;8064;51.142;4.780;2022-11-15T15:54:39;13.50;96.80
15930;DHT22;8064;51.142;4.780;2022-11-15T15:57:06;13.50;97.00
15930;DHT22;8064;51.142;4.780;2022-11-15T15:59:32;13.50;97.30
15930;DHT22;8064;51.142;4.780;2022-11-15T16:01:58;13.50;97.40
15930;DHT22;8064;51.142;4.780;2022-11-15T16:04:25;13.40;97.50
15930;DHT22;8064;51.142;4.780;2022-11-15T16:06:51;13.40;98.10
15930;DHT22;8064;51.142;4.780;2022-11-15T16:09:20;13.30;97.90
15930;DHT22;8064;51.142;4.780;2022-11-15T16:12:08;13.30;98.10
15930;DHT22;8064;51.142;4.780;2022-11-15T16:14:34;13.30;98.30
15930;DHT22;8064;51.142;4.780;2022-11-15T16:17:00;13.30;98.40
15930;DHT22;8064;51.142;4.780;2022-11-15T16:19:25;13.20;98.60
15930;DHT22;8064;51.142;4.780;2022-11-15T16:21:51;13.20;98.80
15930;DHT22;8064;51.142;4.780;2022-11-15T16:24:20;13.20;99.00
15930;DHT22;8064;51.142;4.780;2022-11-15T16:26:47;13.20;99.20
15930;DHT22;8064;51.142;4.780;2022-11-15T16:29:13;13.10;99.30
15930;DHT22;8064;51.142;4.780;2022-11-15T16:31:39;13.10;99.50
15930;DHT22;8064;51.142;4.780;2022-11-15T16:34:05;13.10;99.70
15930;DHT22;8064;51.142;4.780;2022-11-15T16:36:33;13.10;99.90
15930;DHT22;8064;51.142;4.780;2022-11-15T16:39:00;13.10;99.90
15930;DHT22;8064;51.142;4.780;2022-11-15T16:41:29;13.00;99.90
15930;DHT22;8064;51.142;4.780;2022-11-15T16:43:55;13.00;99.90
15930;DHT22;8064;51.142;4.780;2022-11-15T16:46:23;13.00;99.90
15930;DHT22;8064;51.142;4.780;2022-11-15T16:48:49;13.00;99.90
15930;DHT22;8064;51.142;4.780;2022-11-15T16:51:16;13.00;99.90
15930;DHT22;8064;51.142;4.780;2022-11-15T16:53:42;13.00;99.90
15930;DHT22;8064;51.142;4.780;2022-11-15T16:56:24;13.00;99.90
15930;DHT22;8064;51.142;4.780;2022-11-15T16:58:52;12.90;99.90
15930;DHT22;8064;51.142;4.780;2022-11-15T17:01:33;12.90;99.90
15930;DHT22;8064;51.142;4.780;2022-11-15T17:04:12;12.90;99.90
15930;DHT22;8064;51.142;4.780;2022-11-15T17:06:39;12.90;99.90
15930;DHT22;8064;51.142;4.780;2022-11-15T17:09:06;12.90;99.90
15930;DHT22;8064;51.142;4.780;2022-11-15T17:11:32;12.90;99.90
15930;DHT22;8064;51.142;4.780;2022-11-15T17:13:58;12.90;99.90
15930;DHT22;8064;51.142;4.780;2022-11-15T17:16:24;12.90;99.90
15930;DHT22;8064;51.142;4.780;2022-11-15T17:18:51;12.90;99.90
15930;DHT22;8064;51.142;4.780;2022-11-15T17:21:21;12.90;99.90
15930;DHT22;8064;51.142;4.780;2022-11-15T17:23:47;12.90;99.90
15930;DHT22;8064;51.142;4.780;2022-11-15T17:26:14;12.90;99.90
15930;DHT22;8064;51.142;4.780;2022-11-15T17:28:40;12.90;99.90
15930;DHT22;8064;51.142;4.780;2022-11-15T17:31:08;12.80;99.90
15930;DHT22;8064;51.142;4.780;2022-11-15T17:33:34;12.80;99.90
15930;DHT22;8064;51.142;4.780;2022-11-15T17:36:03;12.80;99.90
15930;DHT22;8064;51.142;4.780;2022-11-15T17:38:29;12.80;99.90
15930;DHT22;8064;51.142;4.780;2022-11-15T17:41:02;12.80;99.90
15930;DHT22;8064;51.142;4.780;2022-11-15T17:43:29;12.80;99.90
15930;DHT22;8064;51.142;4.780;2022-11-15T17:45:56;12.80;99.90
15930;DHT22;8064;51.142;4.780;2022-11-15T17:48:21;12.80;99.90
15930;DHT22;8064;51.142;4.780;2022-11-15T17:50:58;12.80;99.90
15930;DHT22;8064;51.142;4.780;2022-11-15T17:53:25;12.80;99.90
15930;DHT22;8064;51.142;4.780;2022-11-15T17:55:51;12.90;99.90
15930;DHT22;8064;51.142;4.780;2022-11-15T17:58:17;12.90;99.90
15930;DHT22;8064;51.142;4.780;2022-11-15T18:00:47;12.90;99.90
15930;DHT22;8064;51.142;4.780;2022-11-15T18:03:13;12.90;99.90
15930;DHT22;8064;51.142;4.780;2022-11-15T18:05:39;12.90;99.90
15930;DHT22;8064;51.142;4.780;2022-11-15T18:08:10;12.90;99.90
15930;DHT22;8064;51.142;4.780;2022-11-15T18:10:36;12.90;99.90
15930;DHT22;8064;51.142;4.780;2022-11-15T18:13:02;12.90;99.90
15930;DHT22;8064;51.142;4.780;2022-11-15T18:15:28;12.90;99.90
15930;DHT22;8064;51.142;4.780;2022-11-15T18:17:54;12.80;99.90
15930;DHT22;8064;51.142;4.780;2022-11-15T18:20:20;12.80;99.90
15930;DHT22;8064;51.142;4.780;2022-11-15T18:22:45;12.80;99.90
15930;DHT22;8064;51.142;4.780;2022-11-15T18:25:11;12.80;99.90
15930;DHT22;8064;51.142;4.780;2022-11-15T18:27:40;12.90;99.90
15930;DHT22;8064;51.142;4.780;2022-11-15T18:30:07;12.90;99.90
15930;DHT22;8064;51.142;4.780;2022-11-15T18:32:33;12.90;99.90
15930;DHT22;8064;51.142;4.780;2022-11-15T18:34:58;12.90;99.90